Time;durP1;ratioP1;P1;durP2;ratioP2;P2;SDS_P1;SDS_P2;PMS_P1;PMS_P2;Temp;Humidity;BMP_temperature;BMP_pressure;BME280_temperature;BME280_humidity;BME280_pressure;Samples;Min_cycle;Max_cycle;Signal;HPM_P1;HPM_P2
2021/09/17 00:01:25;;;;;;;18.40;12.73;;;13.90;99.90;;;;;;5045106;28;20029;-84
2021/09/17 00:03:51;;;;;;;17.17;12.80;;;13.90;99.90;;;;;;5047350;28;20022;-84
2021/09/17 00:06:17;;;;;;;16.80;11.75;;;13.90;99.90;;;;;;5059598;28;20471;-84
2021/09/17 00:08:43;;;;;;;14.10;11.30;;;13.80;99.90;;;;;;5057503;28;20040;-84
2021/09/17 00:11:09;;;;;;;15.95;12.07;;;13.80;99.90;;;;;;5064925;28;20033;-84
2021/09/17 00:13:36;;;;;;;21.48;14.25;;;13.80;99.90;;;;;;5065349;28;20054;-84
2021/09/17 00:16:02;;;;;;;21.63;14.43;;;13.70;99.90;;;;;;5061068;28;20022;-84
2021/09/17 00:18:28;;;;;;;18.63;12.52;;;13.60;99.90;;;;;;5045641;28;20017;-84
2021/09/17 00:20:54;;;;;;;22.52;14.20;;;13.60;99.90;;;;;;5044224;28;20083;-84
2021/09/17 00:23:20;;;;;;;18.23;13.32;;;13.50;99.90;;;;;;5043658;28;20049;-84
2021/09/17 00:25:46;;;;;;;21.80;13.70;;;13.50;99.90;;;;;;5048145;28;20084;-84
2021/09/17 00:28:12;;;;;;;26.83;16.63;;;13.40;99.90;;;;;;5054375;28;20467;-84
2021/09/17 00:30:38;;;;;;;21.98;14.13;;;13.40;99.90;;;;;;5044807;28;20029;-84
2021/09/17 00:33:04;;;;;;;23.58;15.80;;;13.20;99.90;;;;;;5046630;28;20049;-84
2021/09/17 00:35:30;;;;;;;25.73;16.13;;;13.20;99.90;;;;;;5050792;28;20020;-83
2021/09/17 00:37:56;;;;;;;23.83;15.80;;;13.20;99.90;;;;;;5056758;28;20025;-84
2021/09/17 00:40:22;;;;;;;24.45;16.48;;;13.10;99.90;;;;;;5056734;28;20021;-84
2021/09/17 00:42:48;;;;;;;24.13;15.32;;;13.10;99.90;;;;;;5064565;28;20028;-84
2021/09/17 00:45:15;;;;;;;21.63;14.18;;;13.10;99.90;;;;;;5065994;28;20060;-84
2021/09/17 00:47:41;;;;;;;30.05;18.55;;;13.10;99.90;;;;;;5069055;28;20029;-82
2021/09/17 00:50:10;;;;;;;29.33;16.95;;;13.00;99.90;;;;;;5069614;28;20046;-85
2021/09/17 00:52:37;;;;;;;25.40;15.73;;;13.00;99.90;;;;;;5025437;28;20025;-84
2021/09/17 00:55:04;;;;;;;25.30;15.73;;;12.90;99.90;;;;;;5023433;28;20042;-83
2021/09/17 00:57:30;;;;;;;31.65;17.55;;;12.90;99.90;;;;;;5025002;28;20030;-83
2021/09/17 00:59:57;;;;;;;26.02;15.95;;;12.90;99.90;;;;;;5024522;28;20049;-84
2021/09/17 01:02:23;;;;;;;27.23;15.95;;;12.80;99.90;;;;;;5024874;28;20077;-84
2021/09/17 01:04:49;;;;;;;25.15;14.85;;;12.80;99.90;;;;;;5039148;28;20049;-83
2021/09/17 01:07:15;;;;;;;21.42;14.38;;;12.70;99.90;;;;;;5050994;28;20021;-83
2021/09/17 01:09:42;;;;;;;22.08;13.95;;;12.70;99.90;;;;;;5051620;28;20048;-84
2021/09/17 01:12:08;;;;;;;26.38;16.35;;;12.70;99.90;;;;;;5043014;28;20018;-84
2021/09/17 01:14:36;;;;;;;29.75;16.45;;;12.80;99.90;;;;;;5043351;28;20056;-84
2021/09/17 01:17:03;;;;;;;24.15;14.70;;;12.80;99.90;;;;;;5044084;28;20462;-84
2021/09/17 01:19:29;;;;;;;22.00;15.00;;;12.90;99.90;;;;;;5041033;28;20497;-84
2021/09/17 01:21:59;;;;;;;21.80;14.60;;;12.90;99.90;;;;;;5042770;28;20026;-84
2021/09/17 01:24:26;;;;;;;19.35;13.45;;;13.00;99.90;;;;;;5042768;28;20052;-84
2021/09/17 01:26:52;;;;;;;16.67;12.50;;;13.00;99.90;;;;;;5043086;28;20087;-83
2021/09/17 01:29:18;;;;;;;20.75;12.65;;;13.10;99.90;;;;;;5043467;28;20030;-84
2021/09/17 01:31:44;;;;;;;15.45;11.68;;;13.00;99.90;;;;;;5042878;28;20029;-83
2021/09/17 01:34:10;;;;;;;12.98;11.07;;;13.00;99.90;;;;;;5044632;28;20054;-83
2021/09/17 01:36:36;;;;;;;17.08;10.98;;;13.00;99.90;;;;;;5054578;28;20021;-84
2021/09/17 01:39:03;;;;;;;17.38;13.05;;;13.00;99.90;;;;;;5053424;28;20029;-84
2021/09/17 01:41:29;;;;;;;15.20;11.18;;;13.00;99.90;;;;;;5042190;28;20030;-83
2021/09/17 01:43:55;;;;;;;17.33;11.73;;;13.00;99.90;;;;;;5042577;28;20036;-84
2021/09/17 01:46:21;;;;;;;15.05;10.82;;;13.00;99.90;;;;;;5043224;28;20045;-84
2021/09/17 01:48:47;;;;;;;13.07;9.38;;;13.10;99.90;;;;;;5044079;28;20064;-84
2021/09/17 01:51:13;;;;;;;13.10;10.30;;;13.10;99.90;;;;;;5043998;28;20028;-84
2021/09/17 01:53:40;;;;;;;13.02;9.73;;;13.10;99.90;;;;;;5043256;28;20025;-84
2021/09/17 01:56:06;;;;;;;11.90;8.93;;;13.10;99.90;;;;;;5044335;28;20022;-83
2021/09/17 01:58:32;;;;;;;10.50;8.35;;;13.20;99.90;;;;;;5042595;28;20057;-84
2021/09/17 02:00:58;;;;;;;10.05;8.07;;;13.30;99.90;;;;;;5046537;28;20022;-84
2021/09/17 02:03:24;;;;;;;9.32;7.20;;;13.30;99.90;;;;;;5046669;28;20041;-84
2021/09/17 02:05:50;;;;;;;11.73;8.68;;;13.40;99.90;;;;;;5062221;28;20031;-84
2021/09/17 02:08:16;;;;;;;9.98;7.78;;;13.40;99.90;;;;;;5057399;28;20025;-84
2021/09/17 02:10:42;;;;;;;12.35;9.30;;;13.40;99.90;;;;;;5052189;28;20080;-84
2021/09/17 02:13:07;;;;;;;13.48;10.55;;;13.30;99.90;;;;;;5048486;28;20033;-83
2021/09/17 02:15:33;;;;;;;14.30;10.60;;;13.30;99.90;;;;;;5044048;28;20026;-84
2021/09/17 02:17:59;;;;;;;12.85;9.43;;;13.30;99.90;;;;;;5039970;28;20044;-83
2021/09/17 02:20:25;;;;;;;12.13;9.25;;;13.20;99.90;;;;;;5041972;28;20179;-84
2021/09/17 02:22:50;;;;;;;11.27;8.32;;;13.20;99.90;;;;;;5046145;28;20017;-84
2021/09/17 02:25:16;;;;;;;8.73;7.15;;;13.20;99.90;;;;;;5051855;28;20052;-84
2021/09/17 02:27:42;;;;;;;11.13;7.38;;;13.20;99.90;;;;;;5058048;28;20021;-82
2021/09/17 02:30:09;;;;;;;9.50;7.90;;;13.20;99.90;;;;;;5050461;28;20506;-84
2021/09/17 02:32:35;;;;;;;9.80;7.35;;;13.20;99.90;;;;;;5045816;28;20029;-84
2021/09/17 02:35:01;;;;;;;9.35;7.78;;;13.20;99.90;;;;;;5052507;28;20075;-84
2021/09/17 02:37:27;;;;;;;11.80;8.90;;;13.20;99.90;;;;;;5054321;28;20085;-84
2021/09/17 02:39:53;;;;;;;13.93;9.40;;;13.20;99.90;;;;;;5059784;28;20032;-84
2021/09/17 02:42:18;;;;;;;10.70;8.68;;;13.20;99.90;;;;;;5047013;28;20032;-84
2021/09/17 02:44:44;;;;;;;9.98;8.40;;;13.20;99.90;;;;;;5048176;28;20032;-84
2021/09/17 02:47:10;;;;;;;11.15;7.88;;;13.20;99.90;;;;;;5055020;28;20020;-84
2021/09/17 02:49:36;;;;;;;11.77;8.30;;;13.30;99.90;;;;;;5045702;28;20053;-83
2021/09/17 02:52:03;;;;;;;14.02;8.75;;;13.30;99.90;;;;;;5043128;28;20054;-84
2021/09/17 02:54:28;;;;;;;11.30;8.75;;;13.20;99.90;;;;;;5042558;28;20026;-84
2021/09/17 02:56:54;;;;;;;9.95;7.97;;;13.20;99.90;;;;;;5043276;28;20563;-84
2021/09/17 02:59:20;;;;;;;11.13;8.68;;;13.20;99.90;;;;;;5042715;28;20026;-84
2021/09/17 03:01:45;;;;;;;10.27;8.52;;;13.20;99.90;;;;;;5042725;28;20109;-84
2021/09/17 03:04:11;;;;;;;10.80;7.65;;;13.10;99.90;;;;;;5044667;28;20030;-84
2021/09/17 03:06:37;;;;;;;11.45;7.88;;;13.10;99.90;;;;;;5055523;28;20470;-84
2021/09/17 03:09:03;;;;;;;12.18;8.57;;;13.10;99.90;;;;;;5053045;28;20080;-84
2021/09/17 03:11:28;;;;;;;10.70;7.75;;;13.10;99.90;;;;;;5050875;28;20044;-83
2021/09/17 03:13:54;;;;;;;8.75;7.15;;;13.20;99.90;;;;;;5049201;28;20040;-83
2021/09/17 03:16:20;;;;;;;11.77;8.57;;;13.20;99.90;;;;;;5048248;28;20030;-84
2021/09/17 03:18:46;;;;;;;9.82;7.40;;;13.30;99.90;;;;;;5048959;28;20155;-82
2021/09/17 03:21:11;;;;;;;15.52;8.85;;;13.30;99.90;;;;;;5047617;28;20493;-83
2021/09/17 03:23:37;;;;;;;12.05;8.35;;;13.30;99.90;;;;;;5044841;28;20025;-84
2021/09/17 03:26:03;;;;;;;14.02;8.93;;;13.30;99.90;;;;;;5045119;28;20049;-84
2021/09/17 03:28:29;;;;;;;11.02;9.07;;;13.30;99.90;;;;;;5045055;28;20065;-83
2021/09/17 03:30:54;;;;;;;11.98;7.82;;;13.20;99.90;;;;;;5049358;28;20029;-83
2021/09/17 03:33:20;;;;;;;10.40;7.22;;;13.30;99.90;;;;;;5045865;28;20052;-81
2021/09/17 03:35:46;;;;;;;12.05;9.00;;;13.30;99.90;;;;;;5044403;28;20021;-82
2021/09/17 03:38:12;;;;;;;10.85;8.18;;;13.30;99.90;;;;;;5059295;28;20084;-81
2021/09/17 03:40:39;;;;;;;11.48;8.35;;;13.30;99.90;;;;;;5060518;28;20021;-81
2021/09/17 03:43:05;;;;;;;15.63;8.63;;;13.20;99.90;;;;;;5059223;28;20032;-81
2021/09/17 03:45:32;;;;;;;11.48;9.02;;;13.20;99.90;;;;;;5040827;28;20024;-82
2021/09/17 03:48:09;;;;;;;12.50;9.10;;;13.20;99.90;;;;;;5040575;28;20025;-81
2021/09/17 03:50:35;;;;;;;10.35;8.45;;;13.30;99.90;;;;;;5042613;28;20032;-81
2021/09/17 03:53:01;;;;;;;9.63;8.07;;;13.20;99.90;;;;;;5041309;28;20076;-81
2021/09/17 03:55:27;;;;;;;12.10;9.00;;;13.20;99.90;;;;;;5041444;28;20029;-82
2021/09/17 03:57:53;;;;;;;12.07;9.75;;;13.20;99.90;;;;;;5040883;28;20035;-82
2021/09/17 04:00:19;;;;;;;10.10;8.05;;;13.20;99.90;;;;;;5040464;28;20057;-82
2021/09/17 04:02:44;;;;;;;13.30;8.80;;;13.20;99.90;;;;;;5040827;28;20033;-82
2021/09/17 04:05:10;;;;;;;10.48;8.25;;;13.20;99.90;;;;;;5039703;28;20022;-82
2021/09/17 04:07:38;;;;;;;11.00;7.95;;;13.30;99.90;;;;;;5085968;28;20445;-83
2021/09/17 04:10:05;;;;;;;13.35;9.90;;;13.30;99.90;;;;;;5058117;28;20100;-81
2021/09/17 04:12:31;;;;;;;10.90;7.32;;;13.30;99.90;;;;;;5060136;28;20025;-82
2021/09/17 04:14:56;;;;;;;8.77;7.60;;;13.30;99.90;;;;;;5058961;28;20024;-81
2021/09/17 04:17:22;;;;;;;10.25;8.00;;;13.30;99.90;;;;;;5048134;28;20025;-80
2021/09/17 04:19:48;;;;;;;11.18;8.85;;;13.30;99.90;;;;;;5040977;28;20020;-80
2021/09/17 04:22:13;;;;;;;14.25;9.15;;;13.30;99.90;;;;;;5040214;28;20108;-81
2021/09/17 04:24:39;;;;;;;9.80;8.07;;;13.30;99.90;;;;;;5039630;28;20029;-82
2021/09/17 04:27:05;;;;;;;10.63;7.75;;;13.30;99.90;;;;;;5039073;28;20029;-82
2021/09/17 04:29:31;;;;;;;7.82;6.70;;;13.40;99.90;;;;;;5040959;28;20028;-82
2021/09/17 04:31:56;;;;;;;12.23;9.00;;;13.40;99.90;;;;;;5039167;28;20687;-82
2021/09/17 04:34:22;;;;;;;11.52;7.95;;;13.40;99.90;;;;;;5041685;28;20057;-82
2021/09/17 04:36:48;;;;;;;9.27;7.85;;;13.40;99.90;;;;;;5059222;28;20124;-82
2021/09/17 04:39:13;;;;;;;8.07;7.07;;;13.40;99.90;;;;;;5050663;28;20033;-82
2021/09/17 04:41:39;;;;;;;9.05;7.40;;;13.40;99.90;;;;;;5057379;28;20385;-83
2021/09/17 04:44:05;;;;;;;11.43;9.35;;;13.40;99.90;;;;;;5052982;28;20063;-81
2021/09/17 04:46:30;;;;;;;11.60;9.38;;;13.40;99.90;;;;;;5036501;28;20043;-82
2021/09/17 04:48:56;;;;;;;11.95;9.13;;;13.40;99.90;;;;;;5038181;28;20087;-82
2021/09/17 04:51:22;;;;;;;14.05;9.30;;;13.40;99.90;;;;;;5038239;28;20030;-82
2021/09/17 04:53:47;;;;;;;10.18;8.35;;;13.40;99.90;;;;;;5040551;28;20422;-82
2021/09/17 04:56:13;;;;;;;9.75;8.23;;;13.40;99.90;;;;;;5040439;28;20061;-83
2021/09/17 04:58:39;;;;;;;8.80;7.05;;;13.40;99.90;;;;;;5043490;28;20045;-83
2021/09/17 05:01:05;;;;;;;8.77;7.38;;;13.40;99.90;;;;;;5044450;28;20037;-83
2021/09/17 05:03:30;;;;;;;9.70;7.63;;;13.50;99.90;;;;;;5044886;28;20041;-84
2021/09/17 05:05:56;;;;;;;14.80;9.43;;;13.50;99.90;;;;;;5052965;28;20028;-84
2021/09/17 05:08:22;;;;;;;12.60;8.85;;;13.50;99.90;;;;;;5059712;28;20028;-85
2021/09/17 05:10:47;;;;;;;16.20;9.80;;;13.60;99.90;;;;;;5055827;28;20033;-83
2021/09/17 05:13:13;;;;;;;12.50;10.80;;;13.60;99.90;;;;;;5058693;28;20025;-83
2021/09/17 05:15:39;;;;;;;13.27;9.77;;;13.60;99.90;;;;;;5061272;28;20074;-82
2021/09/17 05:18:05;;;;;;;10.70;8.27;;;13.60;99.90;;;;;;5064587;28;20037;-83
2021/09/17 05:20:30;;;;;;;11.85;9.45;;;13.60;99.90;;;;;;5065584;28;20009;-82
2021/09/17 05:22:56;;;;;;;14.18;9.63;;;13.60;99.90;;;;;;5074349;28;20081;-83
2021/09/17 05:25:22;;;;;;;14.45;10.20;;;13.70;99.90;;;;;;5068996;28;20032;-84
2021/09/17 05:27:48;;;;;;;11.25;9.02;;;13.70;99.90;;;;;;5066769;28;20046;-84
2021/09/17 05:30:13;;;;;;;12.95;9.43;;;13.70;99.90;;;;;;5063323;28;20025;-83
2021/09/17 05:32:39;;;;;;;11.65;9.43;;;13.70;99.90;;;;;;5066108;28;20052;-82
2021/09/17 05:35:07;;;;;;;14.00;9.95;;;13.70;99.90;;;;;;5058848;28;20036;-84
2021/09/17 05:37:33;;;;;;;12.60;9.55;;;13.80;99.90;;;;;;5060909;28;20039;-83
2021/09/17 05:39:58;;;;;;;11.35;8.85;;;13.90;99.90;;;;;;5062187;28;20021;-83
2021/09/17 05:42:24;;;;;;;13.40;9.75;;;13.90;99.90;;;;;;5071397;28;20017;-83
2021/09/17 05:44:50;;;;;;;11.43;8.90;;;14.00;99.90;;;;;;5071687;28;20029;-83
2021/09/17 05:47:16;;;;;;;11.00;8.05;;;14.00;99.90;;;;;;5072027;28;20028;-83
2021/09/17 05:49:42;;;;;;;12.82;9.02;;;14.00;99.90;;;;;;5071526;28;20029;-84
2021/09/17 05:52:08;;;;;;;8.30;6.90;;;14.10;99.90;;;;;;5059585;28;20032;-83
2021/09/17 05:54:33;;;;;;;11.13;8.05;;;14.10;99.90;;;;;;5050907;28;20132;-83
2021/09/17 05:57:02;;;;;;;11.95;9.13;;;14.10;99.90;;;;;;5051141;28;20078;-85
2021/09/17 05:59:28;;;;;;;11.73;8.88;;;14.10;99.90;;;;;;5050480;28;20036;-82
2021/09/17 06:01:54;;;;;;;10.80;9.18;;;14.20;99.90;;;;;;5048583;28;20111;-83
2021/09/17 06:04:19;;;;;;;13.50;9.75;;;14.20;99.90;;;;;;5051287;28;20040;-84
2021/09/17 06:06:46;;;;;;;11.85;9.38;;;14.30;99.90;;;;;;5060094;28;20029;-83
2021/09/17 06:09:12;;;;;;;12.15;9.55;;;14.30;99.90;;;;;;5091185;28;20097;-83
2021/09/17 06:11:38;;;;;;;10.55;8.48;;;14.30;99.90;;;;;;5056175;28;20059;-84
2021/09/17 06:14:04;;;;;;;13.65;10.23;;;14.40;99.90;;;;;;5049238;28;20073;-83
2021/09/17 06:16:30;;;;;;;12.50;9.63;;;14.40;99.90;;;;;;5048750;28;20029;-84
2021/09/17 06:19:02;;;;;;;10.38;8.93;;;14.40;99.90;;;;;;5047335;28;20031;-83
2021/09/17 06:21:32;;;;;;;10.50;8.55;;;14.50;99.90;;;;;;5047119;28;20083;-84
2021/09/17 06:23:59;;;;;;;14.02;9.70;;;14.60;99.90;;;;;;5046418;28;20511;-83
2021/09/17 06:26:30;;;;;;;10.15;8.05;;;14.70;99.90;;;;;;5047414;28;20032;-84
2021/09/17 06:28:56;;;;;;;9.75;6.95;;;14.80;99.90;;;;;;5049485;28;20021;-84
2021/09/17 06:31:22;;;;;;;15.30;10.30;;;14.90;99.90;;;;;;5048227;28;20025;-82
2021/09/17 06:33:48;;;;;;;9.65;8.63;;;15.00;99.90;;;;;;5046954;28;20068;-83
2021/09/17 06:36:14;;;;;;;9.63;8.35;;;15.10;99.90;;;;;;5054617;28;20706;-83
2021/09/17 06:38:40;;;;;;;9.05;7.93;;;15.20;99.90;;;;;;5056588;28;20025;-84
2021/09/17 06:41:06;;;;;;;10.70;7.57;;;15.40;99.90;;;;;;5052399;28;20084;-82
2021/09/17 06:43:32;;;;;;;9.27;7.80;;;15.50;99.90;;;;;;5046804;28;20048;-85
2021/09/17 06:45:57;;;;;;;8.02;6.68;;;15.70;99.90;;;;;;5051773;28;20021;-85
2021/09/17 06:48:23;;;;;;;8.10;7.00;;;15.90;99.90;;;;;;5046828;28;20025;-84
2021/09/17 06:50:49;;;;;;;6.55;5.40;;;16.00;99.90;;;;;;5048048;28;20026;-85
2021/09/17 06:53:15;;;;;;;9.15;6.75;;;16.00;99.90;;;;;;5048171;28;20109;-83
2021/09/17 06:55:40;;;;;;;9.48;7.35;;;16.10;99.40;;;;;;5047989;28;20030;-84
2021/09/17 06:58:06;;;;;;;13.55;9.18;;;16.20;99.20;;;;;;5048639;28;20033;-84
2021/09/17 07:00:35;;;;;;;12.57;9.00;;;16.20;98.70;;;;;;5047176;28;20108;-83
2021/09/17 07:03:01;;;;;;;9.73;8.15;;;16.20;98.70;;;;;;5049563;28;20037;-84
2021/09/17 07:05:28;;;;;;;9.30;8.15;;;16.30;97.40;;;;;;5059809;28;20021;-84
2021/09/17 07:08:00;;;;;;;10.52;7.85;;;16.20;98.10;;;;;;5062008;28;20005;-83
2021/09/17 07:10:27;;;;;;;7.32;6.20;;;16.20;98.00;;;;;;5063864;28;20033;-83
2021/09/17 07:12:53;;;;;;;6.78;5.75;;;16.20;98.40;;;;;;5071627;28;20025;-84
2021/09/17 07:15:18;;;;;;;7.72;6.20;;;16.30;98.60;;;;;;5049499;28;20101;-85
2021/09/17 07:17:44;;;;;;;8.82;6.78;;;16.30;98.20;;;;;;5051155;28;20047;-83
2021/09/17 07:20:11;;;;;;;7.78;6.35;;;16.10;98.30;;;;;;5049471;28;20417;-84
2021/09/17 07:22:37;;;;;;;6.00;5.40;;;16.00;98.50;;;;;;5049369;28;20055;-83
2021/09/17 07:25:04;;;;;;;7.65;6.50;;;16.10;99.00;;;;;;5051732;28;20287;-83
2021/09/17 07:27:31;;;;;;;9.20;6.47;;;16.30;98.80;;;;;;5052411;28;20101;-83
2021/09/17 07:29:57;;;;;;;8.73;5.95;;;16.40;98.20;;;;;;5051286;28;20025;-84
2021/09/17 07:32:22;;;;;;;6.28;5.18;;;16.60;97.80;;;;;;5047790;28;20106;-84
2021/09/17 07:34:48;;;;;;;5.82;4.88;;;16.70;97.80;;;;;;5049911;28;20061;-84
2021/09/17 07:37:14;;;;;;;8.05;6.13;;;16.90;98.00;;;;;;5059236;28;20075;-84
2021/09/17 07:39:40;;;;;;;5.03;4.53;;;16.90;97.30;;;;;;5062016;28;20053;-84
2021/09/17 07:42:07;;;;;;;8.23;6.82;;;17.00;97.50;;;;;;5047298;28;20075;-84
2021/09/17 07:44:37;;;;;;;8.65;6.45;;;17.10;96.50;;;;;;5049523;28;20045;-83
2021/09/17 07:47:24;;;;;;;8.85;7.68;;;17.20;96.20;;;;;;5050793;28;20356;-83
2021/09/17 07:49:50;;;;;;;9.63;7.05;;;17.30;95.60;;;;;;5049290;28;20066;-83
2021/09/17 07:52:16;;;;;;;11.50;7.05;;;17.40;94.90;;;;;;5049278;28;20040;-84
2021/09/17 07:54:42;;;;;;;8.00;5.72;;;17.50;94.60;;;;;;5047779;28;20144;-84
2021/09/17 07:57:10;;;;;;;10.30;6.82;;;17.40;94.40;;;;;;5046165;28;20028;-85
2021/09/17 07:59:36;;;;;;;8.02;5.47;;;17.20;94.70;;;;;;5045508;28;20029;-85
2021/09/17 08:02:02;;;;;;;4.72;4.22;;;17.20;94.90;;;;;;5046440;28;20052;-84
2021/09/17 08:04:28;;;;;;;10.00;7.10;;;17.40;94.80;;;;;;5049400;28;20017;-84
2021/09/17 08:06:54;;;;;;;6.38;5.50;;;17.60;93.90;;;;;;5055056;28;20047;-84
2021/09/17 08:09:19;;;;;;;6.53;5.38;;;17.70;93.90;;;;;;5054915;28;20028;-84
2021/09/17 08:11:45;;;;;;;7.72;6.05;;;17.80;93.50;;;;;;5065986;28;20389;-84
2021/09/17 08:14:11;;;;;;;6.38;5.22;;;17.70;93.40;;;;;;5067755;28;20056;-83
2021/09/17 08:16:36;;;;;;;5.97;4.38;;;17.60;93.70;;;;;;5063326;28;20049;-83
2021/09/17 08:19:03;;;;;;;7.80;5.97;;;17.70;93.90;;;;;;5049470;28;20029;-84
2021/09/17 08:21:30;;;;;;;9.23;6.13;;;17.80;92.90;;;;;;5044956;28;20041;-83
2021/09/17 08:23:55;;;;;;;6.40;4.47;;;17.80;92.20;;;;;;5045516;28;20061;-84
2021/09/17 08:26:21;;;;;;;3.55;3.20;;;17.70;92.50;;;;;;5044712;28;20045;-85
2021/09/17 08:28:47;;;;;;;7.90;5.57;;;17.60;93.20;;;;;;5044641;28;20025;-83
2021/09/17 08:31:13;;;;;;;7.10;6.10;;;17.50;93.10;;;;;;5045438;28;20041;-85
2021/09/17 08:33:40;;;;;;;8.45;5.70;;;17.50;93.10;;;;;;5043424;28;20026;-83
2021/09/17 08:36:05;;;;;;;5.75;5.25;;;17.60;92.60;;;;;;5085161;28;20052;-85
2021/09/17 08:38:31;;;;;;;4.53;4.05;;;17.40;93.00;;;;;;5051758;28;20463;-84
2021/09/17 08:40:58;;;;;;;5.35;4.72;;;17.40;93.20;;;;;;5060554;28;20025;-84
2021/09/17 08:43:25;;;;;;;4.95;4.45;;;17.40;93.00;;;;;;5063545;28;20052;-83
2021/09/17 08:45:51;;;;;;;5.80;4.50;;;17.40;93.10;;;;;;5063869;28;20025;-85
2021/09/17 08:48:24;;;;;;;6.53;5.80;;;17.50;92.50;;;;;;5048826;28;20080;-84
2021/09/17 08:50:51;;;;;;;6.05;4.00;;;17.60;92.30;;;;;;5043329;28;20129;-84
2021/09/17 08:53:17;;;;;;;4.97;3.83;;;17.60;92.50;;;;;;5044973;28;20040;-84
2021/09/17 08:55:45;;;;;;;7.40;4.90;;;17.70;92.60;;;;;;5045573;28;20033;-85
2021/09/17 08:58:11;;;;;;;6.85;4.85;;;17.70;92.00;;;;;;5046277;28;20021;-84
2021/09/17 09:00:39;;;;;;;5.97;4.35;;;17.70;91.40;;;;;;5044458;28;20029;-84
2021/09/17 09:03:08;;;;;;;5.25;4.10;;;17.80;91.80;;;;;;5043795;28;20030;-82
2021/09/17 09:05:35;;;;;;;6.97;4.75;;;17.80;91.00;;;;;;5054041;28;20018;-84
2021/09/17 09:08:02;;;;;;;5.05;4.43;;;17.80;90.90;;;;;;5053821;28;20106;-84
2021/09/17 09:10:28;;;;;;;3.45;3.15;;;17.90;90.00;;;;;;5051446;28;20030;-84
2021/09/17 09:13:04;;;;;;;3.90;3.50;;;18.00;89.60;;;;;;5044297;28;20037;-84
2021/09/17 09:15:32;;;;;;;6.75;3.80;;;18.10;89.70;;;;;;5044363;28;20087;-84
2021/09/17 09:18:01;;;;;;;4.88;3.67;;;18.20;89.00;;;;;;5043849;28;20034;-84
2021/09/17 09:20:39;;;;;;;5.40;3.75;;;18.20;88.70;;;;;;5041146;28;20056;-84
2021/09/17 09:23:24;;;;;;;6.30;5.53;;;18.40;88.70;;;;;;5042656;28;20105;-84
2021/09/17 09:25:53;;;;;;;7.82;4.93;;;18.60;85.20;;;;;;5042119;28;20022;-84
2021/09/17 09:28:22;;;;;;;6.70;5.30;;;18.70;85.10;;;;;;5053306;28;20063;-83
2021/09/17 09:30:47;;;;;;;9.52;4.63;;;18.90;83.80;;;;;;5051316;28;20032;-83
2021/09/17 09:33:31;;;;;;;4.97;4.00;;;19.10;83.00;;;;;;5051024;28;20029;-85
2021/09/17 09:36:00;;;;;;;5.75;3.65;;;19.40;81.90;;;;;;5058023;28;20025;-83
2021/09/17 09:38:33;;;;;;;9.60;6.57;;;19.60;80.80;;;;;;5055432;28;20033;-84
2021/09/17 09:41:00;;;;;;;8.63;5.63;;;19.80;79.20;;;;;;5061829;28;20036;-84
2021/09/17 09:44:07;;;;;;;7.50;5.03;;;19.80;79.40;;;;;;5046499;28;20025;-84
2021/09/17 09:46:41;;;;;;;6.07;5.20;;;19.90;80.40;;;;;;5048478;28;20025;-84
2021/09/17 09:49:25;;;;;;;10.60;5.25;;;19.90;78.20;;;;;;5045003;28;20022;-84
2021/09/17 09:52:07;;;;;;;4.13;3.72;;;19.80;77.50;;;;;;5045570;28;20574;-84
2021/09/17 09:54:34;;;;;;;6.00;4.85;;;19.60;76.50;;;;;;5055823;28;20040;-85
2021/09/17 09:57:01;;;;;;;5.85;3.80;;;19.50;77.10;;;;;;5064353;28;20044;-84
2021/09/17 09:59:30;;;;;;;5.88;5.28;;;19.50;77.20;;;;;;5065800;28;20390;-83
2021/09/17 10:02:00;;;;;;;5.53;4.28;;;19.60;76.60;;;;;;5065799;28;20021;-83
2021/09/17 10:04:27;;;;;;;4.35;3.95;;;19.90;75.50;;;;;;5058815;28;20109;-84
2021/09/17 10:07:05;;;;;;;4.00;3.15;;;20.20;72.50;;;;;;5057600;28;20105;-84
2021/09/17 10:09:33;;;;;;;3.13;2.83;;;20.40;72.10;;;;;;5047903;28;20021;-84
2021/09/17 10:12:01;;;;;;;3.33;3.10;;;20.50;70.90;;;;;;5061104;28;20084;-85
2021/09/17 10:14:29;;;;;;;4.50;3.70;;;20.50;69.00;;;;;;5064936;28;20449;-84
2021/09/17 10:16:57;;;;;;;4.55;3.30;;;20.60;67.70;;;;;;5063769;28;20116;-84
2021/09/17 10:19:23;;;;;;;3.03;2.72;;;20.80;69.50;;;;;;5065309;28;20017;-84
2021/09/17 10:22:00;;;;;;;5.10;4.25;;;21.10;68.50;;;;;;5066063;28;20444;-83
2021/09/17 10:24:25;;;;;;;3.63;3.17;;;21.10;65.90;;;;;;5049907;28;20510;-84
2021/09/17 10:27:17;;;;;;;4.40;3.00;;;21.10;66.70;;;;;;5050990;28;20081;-84
2021/09/17 10:29:57;;;;;;;4.15;2.63;;;20.90;65.80;;;;;;5048720;28;20025;-84
2021/09/17 10:32:34;;;;;;;2.67;2.17;;;20.70;66.00;;;;;;5049009;28;20029;-84
2021/09/17 10:35:23;;;;;;;3.03;2.83;;;20.60;67.00;;;;;;5057741;28;20044;-84
2021/09/17 10:38:04;;;;;;;2.92;2.03;;;20.40;66.90;;;;;;5062904;28;20057;-84
2021/09/17 10:40:45;;;;;;;2.55;2.35;;;20.30;65.50;;;;;;5063438;28;20033;-83
2021/09/17 10:43:10;;;;;;;2.40;2.10;;;19.80;66.90;;;;;;5048419;28;20053;-83
2021/09/17 10:45:44;;;;;;;2.97;2.58;;;19.60;68.40;;;;;;5061919;28;20025;-84
2021/09/17 10:48:21;;;;;;;2.70;2.50;;;19.50;68.00;;;;;;5067924;28;20496;-84
2021/09/17 10:51:00;;;;;;;2.58;2.15;;;19.30;68.10;;;;;;5069171;28;20032;-84
2021/09/17 10:53:41;;;;;;;2.92;2.63;;;19.10;67.50;;;;;;5071934;28;20045;-84
2021/09/17 10:56:13;;;;;;;3.80;2.47;;;18.90;68.40;;;;;;5066973;28;20480;-84
2021/09/17 10:58:40;;;;;;;2.20;2.03;;;18.90;68.60;;;;;;5054397;28;20021;-84
2021/09/17 11:01:10;;;;;;;3.72;2.10;;;18.80;68.70;;;;;;5067207;28;20361;-84
2021/09/17 11:03:36;;;;;;;3.90;1.75;;;18.90;68.60;;;;;;5058209;28;20051;-83
2021/09/17 11:06:21;;;;;;;1.80;1.65;;;19.10;66.20;;;;;;5090365;28;20033;-83
2021/09/17 11:09:02;;;;;;;2.30;1.75;;;19.40;65.60;;;;;;5067699;28;20025;-84
2021/09/17 11:11:32;;;;;;;3.28;2.22;;;19.70;65.30;;;;;;5042643;28;20032;-84
2021/09/17 11:14:03;;;;;;;1.75;1.65;;;20.00;63.20;;;;;;5052273;28;20112;-83
2021/09/17 11:16:33;;;;;;;1.38;1.27;;;20.30;63.50;;;;;;5054178;28;20017;-83
2021/09/17 11:19:09;;;;;;;0.82;0.82;;;20.30;63.70;;;;;;5067901;28;20021;-83
2021/09/17 11:21:40;;;;;;;2.65;2.20;;;20.50;62.90;;;;;;5054652;28;20032;-84
2021/09/17 11:24:14;;;;;;;2.20;1.80;;;20.70;60.50;;;;;;5041787;22;20057;-82
2021/09/17 11:26:44;;;;;;;1.65;1.50;;;20.40;61.10;;;;;;5027420;28;20018;-82
2021/09/17 11:29:12;;;;;;;1.48;1.38;;;20.00;61.30;;;;;;5020035;28;20124;-82
2021/09/17 11:31:45;;;;;;;1.00;1.00;;;19.80;62.20;;;;;;5020167;28;20034;-82
2021/09/17 11:34:13;;;;;;;1.10;1.02;;;19.60;63.20;;;;;;5019533;28;20048;-82
2021/09/17 11:36:39;;;;;;;1.98;1.88;;;19.50;63.80;;;;;;5019729;28;20117;-82
2021/09/17 11:39:23;;;;;;;1.60;1.50;;;19.50;63.30;;;;;;5014120;28;20486;-81
2021/09/17 11:41:54;;;;;;;1.67;1.50;;;19.50;61.90;;;;;;5031602;28;20045;-82
2021/09/17 11:44:40;;;;;;;1.50;1.27;;;19.40;59.80;;;;;;5027525;28;20097;-81
2021/09/17 11:47:08;;;;;;;0.90;0.90;;;19.40;60.90;;;;;;5023186;28;20030;-81
2021/09/17 11:49:37;;;;;;;1.98;1.88;;;19.40;61.60;;;;;;5022108;28;20049;-81
2021/09/17 11:52:12;;;;;;;1.80;1.15;;;19.50;60.50;;;;;;5027258;28;20032;-80
2021/09/17 11:54:38;;;;;;;1.15;1.05;;;19.60;59.90;;;;;;5021563;28;20025;-81
2021/09/17 11:57:07;;;;;;;2.92;1.30;;;19.60;60.60;;;;;;5020394;28;20109;-81
2021/09/17 11:59:40;;;;;;;1.25;1.17;;;19.50;61.10;;;;;;5019764;28;20034;-80
2021/09/17 12:02:26;;;;;;;1.88;1.52;;;19.40;61.20;;;;;;5016887;28;20530;-80
2021/09/17 12:04:57;;;;;;;1.50;1.40;;;19.30;60.60;;;;;;5017692;28;20018;-81
2021/09/17 12:07:24;;;;;;;1.50;1.40;;;19.50;59.70;;;;;;5018334;28;20439;-82
2021/09/17 12:09:50;;;;;;;0.90;0.90;;;19.70;59.20;;;;;;5017673;28;20034;-81
2021/09/17 12:12:16;;;;;;;3.13;1.30;;;19.80;59.00;;;;;;5011840;28;20509;-81
2021/09/17 12:14:56;;;;;;;1.52;1.42;;;20.20;58.10;;;;;;5014607;28;20026;-81
2021/09/17 12:17:23;;;;;;;2.63;1.45;;;20.50;57.50;;;;;;4979973;28;20042;-81
2021/09/17 12:19:54;;;;;;;2.63;1.20;;;20.80;57.10;;;;;;4996465;28;20026;-80
2021/09/17 12:22:56;;;;;;;2.35;1.40;;;20.90;56.60;;;;;;5011173;28;20462;-81
2021/09/17 12:25:32;;;;;;;1.10;0.93;;;20.90;56.10;;;;;;5002706;28;20098;-81
2021/09/17 12:28:01;;;;;;;1.98;1.25;;;21.10;55.70;;;;;;4981850;28;20117;-82
2021/09/17 12:30:31;;;;;;;2.83;1.40;;;21.20;55.60;;;;;;4981422;28;20026;-82
2021/09/17 12:33:08;;;;;;;1.08;1.02;;;21.20;55.10;;;;;;4997151;28;20408;-82
2021/09/17 12:35:35;;;;;;;0.95;0.95;;;21.10;55.50;;;;;;5012699;28;20030;-81
2021/09/17 12:38:03;;;;;;;2.80;1.33;;;21.10;56.10;;;;;;5013705;28;20061;-81
2021/09/17 12:40:31;;;;;;;2.53;1.55;;;21.20;55.30;;;;;;5014522;28;20019;-81
2021/09/17 12:43:13;;;;;;;1.77;1.50;;;21.10;55.90;;;;;;5027457;28;20041;-82
2021/09/17 12:45:43;;;;;;;1.80;1.70;;;21.00;56.70;;;;;;5019621;28;20010;-81